Time;durP1;ratioP1;P1;durP2;ratioP2;P2;SDS_P1;SDS_P2;PMS_P1;PMS_P2;Temp;Humidity;BMP_temperature;BMP_pressure;BME280_temperature;BME280_humidity;BME280_pressure;Samples;Min_cycle;Max_cycle;Signal;HPM_P1;HPM_P2
2023/07/07 00:00:14;;;;;;;9.95;5.00;;;16.80;99.50;;;;;;4992338;28;20046;-80
2023/07/07 00:02:40;;;;;;;8.45;4.68;;;16.80;99.70;;;;;;4995868;28;20109;-78
2023/07/07 00:05:05;;;;;;;10.45;4.53;;;16.80;99.70;;;;;;4987486;28;20053;-78
2023/07/07 00:07:31;;;;;;;10.27;4.68;;;16.80;99.80;;;;;;4992016;28;20031;-78
2023/07/07 00:09:57;;;;;;;6.75;4.75;;;16.80;99.90;;;;;;4991469;28;20036;-77
2023/07/07 00:12:25;;;;;;;16.90;4.68;;;16.70;99.90;;;;;;4995342;28;20053;-77
2023/07/07 00:14:53;;;;;;;9.25;4.53;;;16.70;99.90;;;;;;4994236;28;20030;-77
2023/07/07 00:17:19;;;;;;;7.82;4.38;;;16.70;99.90;;;;;;4996660;28;20223;-77
2023/07/07 00:19:45;;;;;;;9.88;4.25;;;16.70;99.90;;;;;;4993868;28;20566;-77
2023/07/07 00:22:13;;;;;;;6.68;4.00;;;16.70;99.90;;;;;;4993088;28;20018;-77
2023/07/07 00:24:38;;;;;;;8.40;4.25;;;16.70;99.90;;;;;;4992400;28;20029;-78
2023/07/07 00:27:05;;;;;;;8.77;4.68;;;16.70;99.90;;;;;;4990076;28;20307;-77
2023/07/07 00:29:31;;;;;;;8.68;4.57;;;16.60;99.90;;;;;;4998371;28;20437;-77
2023/07/07 00:31:57;;;;;;;8.20;4.55;;;16.50;99.90;;;;;;4993796;28;20026;-77
2023/07/07 00:34:27;;;;;;;13.52;4.60;;;16.50;99.90;;;;;;5004378;28;20041;-77
2023/07/07 00:36:53;;;;;;;14.35;4.80;;;16.50;99.90;;;;;;4989932;28;20022;-78
2023/07/07 00:39:21;;;;;;;8.48;4.55;;;16.50;99.90;;;;;;4991339;28;20374;-78
2023/07/07 00:41:46;;;;;;;9.93;4.25;;;16.60;99.90;;;;;;4985859;28;20022;-78
2023/07/07 00:44:12;;;;;;;7.45;4.10;;;16.60;99.90;;;;;;4998522;28;20030;-78
2023/07/07 00:46:39;;;;;;;7.38;4.50;;;16.60;99.90;;;;;;5008692;28;20026;-79
2023/07/07 00:49:18;;;;;;;9.75;4.75;;;16.60;99.90;;;;;;4992126;28;20018;-78
2023/07/07 00:51:49;;;;;;;11.02;4.68;;;16.60;99.90;;;;;;4991980;28;20394;-79
2023/07/07 00:54:19;;;;;;;9.70;4.43;;;16.60;99.90;;;;;;5003649;28;20123;-79
2023/07/07 00:56:49;;;;;;;8.05;4.30;;;16.60;99.90;;;;;;4990471;28;20332;-80
2023/07/07 00:59:21;;;;;;;8.07;4.80;;;16.50;99.90;;;;;;4992106;28;20014;-79
2023/07/07 01:01:51;;;;;;;8.00;4.70;;;16.50;99.90;;;;;;5006202;28;20068;-79
2023/07/07 01:04:17;;;;;;;8.68;4.40;;;16.40;99.90;;;;;;4990840;28;20382;-79
2023/07/07 01:06:57;;;;;;;8.20;4.97;;;16.40;99.90;;;;;;4991693;28;20045;-79
2023/07/07 01:09:23;;;;;;;9.20;4.90;;;16.40;99.90;;;;;;5006796;28;20238;-79
2023/07/07 01:11:48;;;;;;;7.30;5.05;;;16.30;99.90;;;;;;4991367;28;20034;-78
2023/07/07 01:14:19;;;;;;;12.10;5.50;;;16.30;99.90;;;;;;4989854;28;20036;-79
2023/07/07 01:16:52;;;;;;;6.80;5.10;;;16.20;99.90;;;;;;4991317;28;20027;-78
2023/07/07 01:19:33;;;;;;;10.25;5.03;;;16.20;99.90;;;;;;4980985;28;20018;-79
2023/07/07 01:22:29;;;;;;;5.88;4.80;;;16.20;99.90;;;;;;4989495;28;20160;-79
2023/07/07 01:25:07;;;;;;;14.35;5.10;;;16.20;99.90;;;;;;4993111;28;20026;-79
2023/07/07 01:28:03;;;;;;;8.70;5.05;;;16.20;99.90;;;;;;4990264;28;20448;-79
2023/07/07 01:30:37;;;;;;;8.95;5.00;;;16.20;99.90;;;;;;4986683;28;20050;-79
2023/07/07 01:33:08;;;;;;;7.32;5.13;;;16.20;99.90;;;;;;5002528;28;20030;-79
2023/07/07 01:35:33;;;;;;;10.25;5.25;;;16.20;99.90;;;;;;4995431;28;20026;-79
2023/07/07 01:38:01;;;;;;;5.78;4.80;;;16.20;99.90;;;;;;4988746;28;20034;-78
2023/07/07 01:40:43;;;;;;;8.98;5.50;;;16.20;99.90;;;;;;4991486;28;20066;-79
2023/07/07 01:43:17;;;;;;;8.88;5.18;;;16.20;99.90;;;;;;4986217;28;20033;-79
2023/07/07 01:46:09;;;;;;;9.90;5.57;;;16.20;99.90;;;;;;4995099;28;20041;-79
2023/07/07 01:48:53;;;;;;;12.88;4.55;;;16.20;99.90;;;;;;4984363;28;20161;-79
2023/07/07 01:51:23;;;;;;;6.70;4.82;;;16.20;99.90;;;;;;4989373;28;20033;-79
2023/07/07 01:53:50;;;;;;;12.80;5.63;;;16.20;99.90;;;;;;4991563;28;20421;-78
2023/07/07 01:56:21;;;;;;;12.20;4.57;;;16.20;99.90;;;;;;4992386;28;20049;-79
2023/07/07 01:58:50;;;;;;;9.00;5.50;;;16.10;99.90;;;;;;4989001;28;20014;-79
2023/07/07 02:01:16;;;;;;;11.35;5.50;;;16.10;99.90;;;;;;4991343;28;20026;-79
2023/07/07 02:03:42;;;;;;;10.23;5.50;;;16.10;99.90;;;;;;4996088;28;20026;-79
2023/07/07 02:06:07;;;;;;;9.30;5.60;;;16.10;99.90;;;;;;4992156;28;20497;-77
2023/07/07 02:08:33;;;;;;;11.45;6.05;;;16.00;99.90;;;;;;4991268;28;20097;-77
2023/07/07 02:10:58;;;;;;;9.65;5.90;;;16.00;99.90;;;;;;4995923;28;20060;-77
2023/07/07 02:13:24;;;;;;;15.45;5.78;;;15.90;99.90;;;;;;4986670;28;20874;-77
2023/07/07 02:15:51;;;;;;;9.25;5.57;;;15.90;99.90;;;;;;4988744;28;20180;-77
2023/07/07 02:18:18;;;;;;;10.10;5.38;;;15.90;99.90;;;;;;4995834;28;20097;-76
2023/07/07 02:20:44;;;;;;;13.15;5.95;;;15.80;99.90;;;;;;4987998;28;20034;-76
2023/07/07 02:23:09;;;;;;;10.00;5.05;;;15.80;99.90;;;;;;4989329;28;20060;-77
2023/07/07 02:25:35;;;;;;;10.45;5.20;;;15.70;99.90;;;;;;4986608;28;20135;-77
2023/07/07 02:28:00;;;;;;;8.32;5.45;;;15.70;99.90;;;;;;4991934;28;20038;-77
2023/07/07 02:30:26;;;;;;;6.88;5.22;;;15.70;99.90;;;;;;4991820;28;20026;-78
2023/07/07 02:32:54;;;;;;;10.63;5.45;;;15.70;99.90;;;;;;4989478;28;20030;-78
2023/07/07 02:35:20;;;;;;;9.30;5.22;;;15.70;99.90;;;;;;4989191;28;20069;-78
2023/07/07 02:37:45;;;;;;;10.50;5.90;;;15.70;99.90;;;;;;4993255;28;20061;-78
2023/07/07 02:40:11;;;;;;;11.88;5.93;;;15.70;99.90;;;;;;4987961;28;20026;-78
2023/07/07 02:42:37;;;;;;;8.65;5.60;;;15.60;99.90;;;;;;4989566;28;20030;-78
2023/07/07 02:45:03;;;;;;;10.65;5.55;;;15.60;99.90;;;;;;4987245;28;20112;-79
2023/07/07 02:47:29;;;;;;;9.57;6.15;;;15.70;99.90;;;;;;4988056;28;20200;-78
2023/07/07 02:49:57;;;;;;;9.90;6.20;;;15.60;99.90;;;;;;4992450;28;20060;-77
2023/07/07 02:52:23;;;;;;;13.85;7.07;;;15.60;99.90;;;;;;4989753;28;20018;-78
2023/07/07 02:54:49;;;;;;;8.60;6.22;;;15.60;99.90;;;;;;4989308;28;20041;-78
2023/07/07 02:57:17;;;;;;;13.00;5.43;;;15.60;99.90;;;;;;4990102;28;20648;-78
2023/07/07 02:59:42;;;;;;;10.10;5.97;;;15.60;99.90;;;;;;5008005;28;20402;-78
2023/07/07 03:02:08;;;;;;;11.20;6.63;;;15.60;99.90;;;;;;4992512;28;20201;-78
2023/07/07 03:04:34;;;;;;;8.45;6.25;;;15.70;99.90;;;;;;4982769;28;20452;-78
2023/07/07 03:07:01;;;;;;;14.23;6.28;;;15.60;99.90;;;;;;4990010;28;20383;-77
2023/07/07 03:09:27;;;;;;;12.10;6.13;;;15.60;99.90;;;;;;4991784;28;20049;-78
2023/07/07 03:11:52;;;;;;;11.52;6.13;;;15.50;99.90;;;;;;4990692;28;20046;-78
2023/07/07 03:14:19;;;;;;;11.90;6.65;;;15.50;99.90;;;;;;4992051;28;20025;-78
2023/07/07 03:16:51;;;;;;;10.07;6.35;;;15.50;99.90;;;;;;4986285;28;20074;-78
2023/07/07 03:19:18;;;;;;;12.70;6.80;;;15.50;99.90;;;;;;4985301;28;20030;-78
2023/07/07 03:21:44;;;;;;;12.65;6.10;;;15.50;99.90;;;;;;4990110;28;20277;-78
2023/07/07 03:24:09;;;;;;;11.13;6.38;;;15.40;99.90;;;;;;4987677;28;20156;-78
2023/07/07 03:26:35;;;;;;;11.02;6.45;;;15.50;99.90;;;;;;4987946;28;20022;-79
2023/07/07 03:29:01;;;;;;;10.18;5.80;;;15.40;99.90;;;;;;4991319;28;20081;-78
2023/07/07 03:31:30;;;;;;;8.65;5.75;;;15.40;99.90;;;;;;4990345;28;20267;-77
2023/07/07 03:33:58;;;;;;;8.43;5.60;;;15.40;99.90;;;;;;4990102;28;20027;-78
2023/07/07 03:36:29;;;;;;;11.98;5.95;;;15.40;99.90;;;;;;5008949;28;20036;-78
2023/07/07 03:38:55;;;;;;;9.55;6.38;;;15.40;99.90;;;;;;5005505;28;20134;-78
2023/07/07 03:41:25;;;;;;;9.65;6.55;;;15.40;99.90;;;;;;4983818;28;20033;-78
2023/07/07 03:43:53;;;;;;;13.55;7.43;;;15.40;99.90;;;;;;5011761;28;20026;-78
2023/07/07 03:46:20;;;;;;;11.82;6.53;;;15.40;99.90;;;;;;4992249;28;20667;-78
2023/07/07 03:48:47;;;;;;;18.25;7.55;;;15.40;99.90;;;;;;4993506;28;20823;-78
2023/07/07 03:51:15;;;;;;;14.25;7.20;;;15.40;99.90;;;;;;4995488;28;20056;-78
2023/07/07 03:53:42;;;;;;;12.77;6.47;;;15.40;99.90;;;;;;4990268;28;20117;-78
2023/07/07 03:56:08;;;;;;;7.90;5.93;;;15.40;99.90;;;;;;4993339;28;20038;-78
2023/07/07 03:58:34;;;;;;;15.25;6.07;;;15.50;99.90;;;;;;4991938;28;20145;-78
2023/07/07 04:01:05;;;;;;;8.48;6.03;;;15.50;99.90;;;;;;4992550;28;20814;-78
2023/07/07 04:03:34;;;;;;;16.05;6.93;;;15.50;99.90;;;;;;4990362;28;20085;-78
2023/07/07 04:06:00;;;;;;;17.02;7.75;;;15.50;99.90;;;;;;4995889;28;20115;-78
2023/07/07 04:08:26;;;;;;;15.00;7.30;;;15.50;99.90;;;;;;4993903;28;20094;-77
2023/07/07 04:11:19;;;;;;;10.65;6.85;;;15.50;99.90;;;;;;4995108;28;20026;-78
2023/07/07 04:13:46;;;;;;;15.68;7.47;;;15.50;99.90;;;;;;5003979;28;20030;-78
2023/07/07 04:16:21;;;;;;;19.98;6.85;;;15.50;99.90;;;;;;4988832;28;20066;-80
2023/07/07 04:18:47;;;;;;;10.25;7.60;;;15.50;99.90;;;;;;5004001;28;20053;-78
2023/07/07 04:21:16;;;;;;;16.38;8.75;;;15.50;99.90;;;;;;4994893;28;20283;-78
2023/07/07 04:23:44;;;;;;;13.77;7.15;;;15.60;99.90;;;;;;4988993;28;20088;-78
2023/07/07 04:26:11;;;;;;;11.65;7.47;;;15.60;99.90;;;;;;4986593;28;20029;-78
2023/07/07 04:28:37;;;;;;;13.95;7.13;;;15.60;99.90;;;;;;4990618;28;20022;-78
2023/07/07 04:31:04;;;;;;;14.13;7.15;;;15.70;99.90;;;;;;4991070;28;20114;-78
2023/07/07 04:33:31;;;;;;;15.07;7.72;;;15.80;99.90;;;;;;4991544;28;20522;-79
2023/07/07 04:35:59;;;;;;;15.23;7.55;;;15.90;99.90;;;;;;4993290;28;20078;-79
2023/07/07 04:38:32;;;;;;;15.13;7.63;;;15.90;99.90;;;;;;4992938;28;20092;-78
2023/07/07 04:41:15;;;;;;;12.70;7.40;;;16.00;99.90;;;;;;4993408;28;20030;-79
2023/07/07 04:43:44;;;;;;;16.05;7.80;;;16.00;99.90;;;;;;5001843;28;20186;-79
2023/07/07 04:46:13;;;;;;;12.23;6.80;;;16.10;99.90;;;;;;4991037;28;20133;-79
2023/07/07 04:48:39;;;;;;;9.98;7.35;;;16.10;99.90;;;;;;4991671;28;20744;-79
2023/07/07 04:51:07;;;;;;;11.77;7.20;;;16.20;99.90;;;;;;4988499;28;20618;-78
2023/07/07 04:53:35;;;;;;;13.68;7.18;;;16.20;99.90;;;;;;4991381;28;20379;-78
2023/07/07 04:56:04;;;;;;;15.13;7.25;;;16.20;99.90;;;;;;4999856;28;20030;-78
2023/07/07 04:58:33;;;;;;;19.42;7.65;;;16.30;99.90;;;;;;4988575;28;20054;-78
2023/07/07 05:01:12;;;;;;;16.30;7.82;;;16.40;99.90;;;;;;4990638;28;20134;-78
2023/07/07 05:03:40;;;;;;;12.90;6.82;;;16.50;99.90;;;;;;4989649;28;20500;-78
2023/07/07 05:06:06;;;;;;;15.60;7.05;;;16.60;99.90;;;;;;4988066;28;20026;-78
2023/07/07 05:08:33;;;;;;;11.23;6.90;;;16.60;99.90;;;;;;4991428;28;20091;-78
2023/07/07 05:10:59;;;;;;;14.90;6.97;;;16.70;99.90;;;;;;4992105;28;20521;-78
2023/07/07 05:13:25;;;;;;;12.25;6.50;;;16.80;99.90;;;;;;4987273;28;20030;-79
2023/07/07 05:16:08;;;;;;;13.35;7.53;;;16.90;99.90;;;;;;4989100;28;20621;-78
2023/07/07 05:18:34;;;;;;;16.40;6.72;;;17.00;99.90;;;;;;4990305;28;20680;-78
2023/07/07 05:20:59;;;;;;;16.05;6.88;;;17.10;99.90;;;;;;4992170;28;20081;-78
2023/07/07 05:23:25;;;;;;;16.27;7.20;;;17.10;99.90;;;;;;4993676;28;20017;-78
2023/07/07 05:25:52;;;;;;;14.00;6.97;;;17.20;99.90;;;;;;4986811;28;20017;-79
2023/07/07 05:28:18;;;;;;;13.57;6.88;;;17.20;99.90;;;;;;4989429;28;20029;-79
2023/07/07 05:30:44;;;;;;;20.85;7.00;;;17.30;99.90;;;;;;4992481;28;20467;-78
2023/07/07 05:33:10;;;;;;;11.25;6.45;;;17.40;99.90;;;;;;4985498;28;20125;-78
2023/07/07 05:35:36;;;;;;;15.55;6.47;;;17.60;99.90;;;;;;5002200;28;20100;-78
2023/07/07 05:38:02;;;;;;;15.80;6.57;;;17.70;99.90;;;;;;4992336;28;20121;-78
2023/07/07 05:40:28;;;;;;;14.68;6.30;;;17.70;99.90;;;;;;4989536;28;20073;-78
2023/07/07 05:42:56;;;;;;;12.95;6.80;;;17.80;99.90;;;;;;4990674;28;20587;-78
2023/07/07 05:45:23;;;;;;;15.23;7.10;;;17.90;99.90;;;;;;4986056;28;20473;-79
2023/07/07 05:47:49;;;;;;;18.98;7.28;;;18.00;99.90;;;;;;4993045;28;20170;-79
2023/07/07 05:50:15;;;;;;;13.55;6.53;;;18.20;99.90;;;;;;4995370;28;20026;-80
2023/07/07 05:52:41;;;;;;;12.55;6.60;;;18.30;99.90;;;;;;4990084;28;20121;-79
2023/07/07 05:55:22;;;;;;;9.18;6.47;;;18.30;99.90;;;;;;4991442;28;20033;-79
2023/07/07 05:57:48;;;;;;;13.35;6.38;;;18.40;99.90;;;;;;4988488;28;20018;-79
2023/07/07 06:00:14;;;;;;;15.50;6.05;;;18.50;99.90;;;;;;4993728;28;20587;-79
2023/07/07 06:02:39;;;;;;;12.55;6.43;;;18.60;99.90;;;;;;4989522;28;20053;-79
2023/07/07 06:05:05;;;;;;;13.57;6.20;;;18.70;99.90;;;;;;5122657;22;20121;-82
2023/07/07 06:07:31;;;;;;;10.25;6.18;;;18.70;99.60;;;;;;4978207;28;20033;-81
2023/07/07 06:09:57;;;;;;;12.95;6.30;;;18.70;99.20;;;;;;4978135;28;20046;-81
2023/07/07 06:12:23;;;;;;;9.05;6.20;;;18.80;99.30;;;;;;4982359;28;20029;-82
2023/07/07 06:14:51;;;;;;;9.27;5.90;;;18.90;99.20;;;;;;4981026;28;20413;-81
2023/07/07 06:17:17;;;;;;;10.32;5.63;;;19.00;99.10;;;;;;4977937;28;20557;-82
2023/07/07 06:19:43;;;;;;;11.70;5.55;;;19.10;99.40;;;;;;4977717;28;20038;-82
2023/07/07 06:22:08;;;;;;;12.20;6.35;;;19.20;98.80;;;;;;4980656;28;20018;-81
2023/07/07 06:24:36;;;;;;;9.63;5.60;;;19.30;98.40;;;;;;4978098;28;20030;-83
2023/07/07 06:27:02;;;;;;;12.80;5.80;;;19.40;98.40;;;;;;4981828;28;20220;-81
2023/07/07 06:29:29;;;;;;;12.63;5.88;;;19.50;98.40;;;;;;4980791;28;21648;-81
2023/07/07 06:31:55;;;;;;;12.05;5.18;;;19.60;98.50;;;;;;4989605;28;20065;-81
2023/07/07 06:34:21;;;;;;;10.02;5.10;;;19.70;97.30;;;;;;4977984;28;20676;-79
2023/07/07 06:36:47;;;;;;;14.75;5.07;;;19.80;97.40;;;;;;4978760;28;20018;-79
2023/07/07 06:39:12;;;;;;;8.20;4.80;;;19.90;97.20;;;;;;4980719;28;20030;-79
2023/07/07 06:41:40;;;;;;;11.48;5.35;;;20.00;97.20;;;;;;4979256;28;20037;-78
2023/07/07 06:44:06;;;;;;;8.18;5.15;;;20.10;97.30;;;;;;4973371;28;20516;-80
2023/07/07 06:46:32;;;;;;;13.25;5.65;;;20.20;97.20;;;;;;4976641;28;20375;-81
2023/07/07 06:48:59;;;;;;;8.23;5.07;;;20.40;96.40;;;;;;4980159;28;20034;-86
2023/07/07 06:51:25;;;;;;;8.20;5.15;;;20.60;96.40;;;;;;4984283;28;20036;-82
2023/07/07 06:53:53;;;;;;;10.43;5.03;;;20.70;96.60;;;;;;4980974;28;20059;-79
2023/07/07 06:56:18;;;;;;;10.25;5.00;;;20.80;96.50;;;;;;4972437;28;20029;-78
2023/07/07 06:58:46;;;;;;;6.18;4.72;;;20.90;96.40;;;;;;4974676;28;20315;-78
2023/07/07 07:01:14;;;;;;;8.25;5.00;;;21.00;96.20;;;;;;4974288;28;20038;-79
2023/07/07 07:03:43;;;;;;;10.73;4.90;;;21.10;95.90;;;;;;4978052;28;20021;-82
2023/07/07 07:06:09;;;;;;;10.60;4.82;;;21.20;95.50;;;;;;4985185;28;20024;-86
2023/07/07 07:08:37;;;;;;;12.65;5.07;;;21.30;94.70;;;;;;4980537;28;20034;-81
2023/07/07 07:11:08;;;;;;;7.07;4.05;;;21.30;94.00;;;;;;4978263;28;20084;-80
2023/07/07 07:13:34;;;;;;;7.18;4.53;;;21.40;93.60;;;;;;4975769;28;20120;-79
2023/07/07 07:15:59;;;;;;;6.80;3.90;;;21.50;94.40;;;;;;4975156;28;20366;-78
2023/07/07 07:18:25;;;;;;;7.18;3.83;;;21.60;93.90;;;;;;4980535;28;20701;-78
2023/07/07 07:20:54;;;;;;;7.88;4.15;;;21.70;93.90;;;;;;4977221;28;20053;-78
2023/07/07 07:23:20;;;;;;;5.72;3.67;;;21.90;93.70;;;;;;4981974;28;20031;-78
2023/07/07 07:25:46;;;;;;;13.60;4.32;;;22.00;93.00;;;;;;4981926;28;20335;-78
2023/07/07 07:28:13;;;;;;;257.45;116.72;;;22.10;93.30;;;;;;4981152;28;20056;-75
2023/07/07 07:30:39;;;;;;;11.75;5.93;;;22.20;92.90;;;;;;4979685;28;20151;-77
2023/07/07 07:33:13;;;;;;;4.85;3.33;;;22.30;93.10;;;;;;4981638;28;20027;-79
2023/07/07 07:35:39;;;;;;;7.45;4.00;;;22.40;93.40;;;;;;4986359;28;20029;-80
2023/07/07 07:38:08;;;;;;;6.10;3.75;;;22.60;93.20;;;;;;4981633;28;20039;-79
2023/07/07 07:40:34;;;;;;;5.47;3.42;;;22.80;92.70;;;;;;4982193;28;20121;-78
2023/07/07 07:42:59;;;;;;;8.68;4.20;;;23.00;92.60;;;;;;4983269;28;20183;-80
2023/07/07 07:45:25;;;;;;;3.95;3.10;;;23.10;92.20;;;;;;4997464;28;20030;-79
2023/07/07 07:47:54;;;;;;;4.25;2.80;;;23.30;90.50;;;;;;4983619;28;20026;-80
2023/07/07 07:50:21;;;;;;;3.45;2.20;;;23.50;90.30;;;;;;4979965;28;20073;-79
2023/07/07 07:52:46;;;;;;;4.03;2.33;;;23.70;88.10;;;;;;4982446;28;20022;-80
2023/07/07 07:55:16;;;;;;;5.20;1.63;;;23.80;80.80;;;;;;4981877;28;20494;-79
2023/07/07 07:57:45;;;;;;;2.30;2.10;;;23.90;80.60;;;;;;4981314;28;20048;-80
2023/07/07 08:00:11;;;;;;;3.65;2.50;;;24.10;81.80;;;;;;4983131;28;20442;-81
2023/07/07 08:02:37;;;;;;;201.05;86.53;;;24.30;81.10;;;;;;4979421;28;20132;-77
2023/07/07 08:05:04;;;;;;;77.60;29.23;;;24.50;81.50;;;;;;4982625;28;20070;-75
2023/07/07 08:07:31;;;;;;;3.30;2.42;;;24.70;78.30;;;;;;4980305;28;20374;-76
2023/07/07 08:09:59;;;;;;;3.17;2.38;;;24.90;77.60;;;;;;4979254;28;20033;-81
2023/07/07 08:12:28;;;;;;;3.15;2.05;;;25.00;76.90;;;;;;4983063;28;20030;-82
2023/07/07 08:14:54;;;;;;;2.40;1.92;;;25.30;76.30;;;;;;4983103;28;20404;-77
2023/07/07 08:17:19;;;;;;;4.35;2.20;;;25.50;74.30;;;;;;4984041;28;20023;-84
2023/07/07 08:19:48;;;;;;;3.90;2.10;;;25.60;72.60;;;;;;5001988;28;20034;-83
2023/07/07 08:22:35;;;;;;;5.68;2.45;;;25.70;73.10;;;;;;4981335;28;20042;-82
2023/07/07 08:25:01;;;;;;;7.28;2.30;;;25.90;72.60;;;;;;4981102;28;20046;-79
2023/07/07 08:27:30;;;;;;;4.78;2.90;;;25.90;69.60;;;;;;4986881;28;20031;-80
2023/07/07 08:29:56;;;;;;;3.38;2.22;;;26.20;70.50;;;;;;4981369;28;20014;-78
2023/07/07 08:32:23;;;;;;;3.65;2.42;;;26.50;69.60;;;;;;4985797;28;20036;-83
2023/07/07 08:34:52;;;;;;;4.07;2.47;;;26.80;68.90;;;;;;4983087;28;20033;-81
2023/07/07 08:37:20;;;;;;;6.10;2.22;;;27.10;68.60;;;;;;4980807;28;20033;-82
2023/07/07 08:39:50;;;;;;;5.72;2.35;;;27.40;67.50;;;;;;4979875;28;20383;-78
2023/07/07 08:42:30;;;;;;;10.15;2.70;;;27.80;65.30;;;;;;4983570;28;20034;-82
2023/07/07 08:45:04;;;;;;;4.97;2.30;;;28.20;66.10;;;;;;4977913;28;20113;-80
2023/07/07 08:47:54;;;;;;;4.28;2.47;;;28.60;64.80;;;;;;5003079;28;20046;-78
2023/07/07 08:50:49;;;;;;;4.22;1.90;;;28.80;63.50;;;;;;5001521;28;20027;-85
2023/07/07 08:53:36;;;;;;;2.30;2.10;;;28.80;61.80;;;;;;4988378;28;20069;-87
2023/07/07 08:56:28;;;;;;;2.58;2.10;;;28.80;61.30;;;;;;4976369;28;20033;-77
2023/07/07 08:59:02;;;;;;;3.20;1.95;;;29.00;63.10;;;;;;4972244;28;20034;-77
2023/07/07 09:02:10;;;;;;;109.90;51.30;;;29.40;61.20;;;;;;4996467;28;20023;-76
2023/07/07 09:04:42;;;;;;;12.50;6.68;;;29.40;59.80;;;;;;4981273;28;20042;-77
2023/07/07 09:07:13;;;;;;;3.60;2.53;;;29.40;60.40;;;;;;4983302;28;20073;-77
2023/07/07 09:09:45;;;;;;;3.58;2.70;;;29.50;60.20;;;;;;4983778;28;20076;-79
2023/07/07 09:12:24;;;;;;;3.10;2.77;;;29.70;59.20;;;;;;4978534;28;20490;-76
2023/07/07 09:14:52;;;;;;;7.70;2.83;;;30.00;57.50;;;;;;4983259;28;20048;-77
2023/07/07 09:17:35;;;;;;;2.80;2.25;;;30.10;56.00;;;;;;4980147;28;20126;-75
2023/07/07 09:20:02;;;;;;;;;;;30.20;54.70;;;;;;4984701;28;20039;-77
2023/07/07 09:23:06;;;;;;;5.20;2.40;;;30.10;54.30;;;;;;4981190;28;19910;-76
2023/07/07 09:25:42;;;;;;;56.92;24.73;;;30.10;54.30;;;;;;4957372;28;20392;-76
2023/07/07 09:28:11;;;;;;;3.70;2.50;;;30.40;53.80;;;;;;4993013;28;20026;-76
2023/07/07 09:30:57;;;;;;;3.28;2.33;;;30.50;54.00;;;;;;4982924;28;20049;-77
2023/07/07 09:33:24;;;;;;;2.83;2.28;;;30.80;53.30;;;;;;4995607;28;20022;-76
2023/07/07 09:36:21;;;;;;;2.67;2.33;;;31.00;53.20;;;;;;5095910;23;20046;-76
2023/07/07 09:39:11;;;;;;;5.22;2.70;;;31.00;53.40;;;;;;4965824;28;20051;-78
2023/07/07 09:42:16;;;;;;;2.65;2.00;;;31.20;52.80;;;;;;4972419;28;20041;-80
2023/07/07 09:45:15;;;;;;;7.50;3.17;;;31.70;52.30;;;;;;4970170;28;20101;-76
2023/07/07 09:47:52;;;;;;;6.30;2.75;;;31.40;50.00;;;;;;4977341;28;20026;-77
2023/07/07 09:50:21;;;;;;;7.78;2.45;;;30.90;49.20;;;;;;4973322;28;20478;-77
2023/07/07 09:53:19;;;;;;;4.43;3.17;;;31.20;50.10;;;;;;4968091;28;20042;-77
2023/07/07 09:55:47;;;;;;;4.07;2.58;;;31.30;49.80;;;;;;4978015;28;20038;-77
2023/07/07 09:58:22;;;;;;;7.20;3.10;;;31.50;49.70;;;;;;4979623;28;20034;-77
2023/07/07 10:00:54;;;;;;;5.38;2.90;;;31.80;49.80;;;;;;4978456;28;20038;-77
2023/07/07 10:03:33;;;;;;;8.23;3.45;;;32.00;48.50;;;;;;4971955;28;20030;-77
2023/07/07 10:06:20;;;;;;;6.28;3.15;;;32.10;48.20;;;;;;4991080;28;20050;-78
2023/07/07 10:08:48;;;;;;;9.05;2.70;;;32.00;47.60;;;;;;4974033;28;20038;-78
2023/07/07 10:11:26;;;;;;;5.18;2.95;;;32.10;47.30;;;;;;4979473;28;20065;-82
2023/07/07 10:13:55;;;;;;;5.97;2.90;;;31.80;45.40;;;;;;4984921;28;20517;-84
2023/07/07 10:16:29;;;;;;;2.85;2.50;;;31.90;45.70;;;;;;4986890;28;20171;-80
2023/07/07 10:19:02;;;;;;;5.45;2.90;;;31.40;44.10;;;;;;4985314;28;20027;-83
2023/07/07 10:21:28;;;;;;;;;;;31.40;45.70;;;;;;4981918;28;20089;-83
2023/07/07 10:23:57;;;;;;;8.07;2.58;;;32.00;45.20;;;;;;4980316;28;20535;-81
2023/07/07 10:26:24;;;;;;;5.18;2.60;;;31.90;43.40;;;;;;4978443;28;20113;-85
2023/07/07 10:28:54;;;;;;;4.40;3.00;;;32.10;43.60;;;;;;4984007;28;20596;-89
2023/07/07 10:31:19;;;;;;;4.05;2.75;;;32.50;44.70;;;;;;4988011;28;20023;-79
2023/07/07 10:33:49;;;;;;;5.20;3.20;;;32.90;43.40;;;;;;4979326;28;20458;-78
2023/07/07 10:36:25;;;;;;;5.80;2.92;;;32.70;41.80;;;;;;4971520;28;20442;-78
2023/07/07 10:38:55;;;;;;;3.70;2.80;;;32.70;42.60;;;;;;4975012;28;20027;-78
2023/07/07 10:41:21;;;;;;;4.47;2.67;;;33.30;42.60;;;;;;4966104;28;20081;-78
2023/07/07 10:43:47;;;;;;;3.28;2.97;;;33.60;41.10;;;;;;4975697;28;20023;-84
2023/07/07 10:46:16;;;;;;;6.05;2.50;;;33.60;41.40;;;;;;4971254;28;20038;-78
2023/07/07 10:48:44;;;;;;;5.20;2.55;;;33.60;41.10;;;;;;4975051;28;20467;-77
2023/07/07 10:51:25;;;;;;;4.35;3.10;;;33.40;41.70;;;;;;4975228;28;20414;-77
2023/07/07 10:54:16;;;;;;;4.70;3.20;;;32.90;40.60;;;;;;4977355;28;20923;-80
2023/07/07 10:56:46;;;;;;;4.07;2.80;;;32.70;40.50;;;;;;4980895;28;20034;-79
2023/07/07 10:59:21;;;;;;;3.97;3.20;;;33.20;40.90;;;;;;4982128;28;20030;-78
2023/07/07 11:01:53;;;;;;;3.65;2.92;;;33.40;41.30;;;;;;4965001;28;20053;-78
2023/07/07 11:04:56;;;;;;;4.05;3.00;;;33.60;40.80;;;;;;4968917;28;20035;-79
2023/07/07 11:07:27;;;;;;;5.68;2.88;;;33.70;40.10;;;;;;4967309;28;20037;-79
2023/07/07 11:10:24;;;;;;;9.17;3.13;;;33.70;40.70;;;;;;4968734;28;20035;-79
2023/07/07 11:13:00;;;;;;;4.45;2.70;;;34.10;41.10;;;;;;4977014;28;20305;-79
2023/07/07 11:15:37;;;;;;;4.38;3.15;;;34.70;39.80;;;;;;4967435;28;20039;-77
2023/07/07 11:18:19;;;;;;;5.68;3.65;;;35.00;40.20;;;;;;4966523;28;20035;-77
2023/07/07 11:21:12;;;;;;;5.50;2.97;;;34.80;38.50;;;;;;4981507;28;20039;-76
2023/07/07 11:23:55;;;;;;;7.95;2.95;;;34.10;39.60;;;;;;4964870;28;20029;-77
2023/07/07 11:26:26;;;;;;;8.18;3.20;;;33.80;41.80;;;;;;4962719;28;20031;-79
2023/07/07 11:29:10;;;;;;;6.97;2.92;;;33.50;40.70;;;;;;4965003;28;20030;-78
2023/07/07 11:31:48;;;;;;;9.90;2.67;;;33.60;41.20;;;;;;4963383;28;20432;-79
2023/07/07 11:34:41;;;;;;;3.47;3.13;;;33.60;41.60;;;;;;4965353;28;20031;-79
2023/07/07 11:37:14;;;;;;;5.13;2.75;;;33.60;40.60;;;;;;4965391;28;20030;-78
2023/07/07 11:39:58;;;;;;;4.10;2.60;;;33.60;40.40;;;;;;4964392;28;20038;-83
2023/07/07 11:42:46;;;;;;;5.03;2.92;;;33.50;39.80;;;;;;4956970;28;20037;-81
2023/07/07 11:45:26;;;;;;;6.70;2.78;;;32.90;39.90;;;;;;4965594;28;20038;-84
2023/07/07 11:48:07;;;;;;;5.03;2.72;;;32.60;41.40;;;;;;4986196;28;20033;-82
2023/07/07 11:50:42;;;;;;;22.17;11.00;;;33.20;40.60;;;;;;4991088;28;20054;-77
2023/07/07 11:53:08;;;;;;;44.72;24.40;;;33.70;40.20;;;;;;4976162;28;20018;-80
2023/07/07 11:56:00;;;;;;;5.50;3.25;;;33.60;39.00;;;;;;4973676;28;20165;-83
2023/07/07 11:58:34;;;;;;;2.97;2.70;;;33.50;39.20;;;;;;4972574;28;20118;-80
2023/07/07 12:01:13;;;;;;;4.35;2.90;;;33.50;39.80;;;;;;4967618;28;20106;-79
2023/07/07 12:03:44;;;;;;;3.35;2.83;;;33.60;39.70;;;;;;4965023;28;20042;-83
2023/07/07 12:06:24;;;;;;;3.77;3.07;;;33.50;39.30;;;;;;4963474;28;20213;-81
2023/07/07 12:09:22;;;;;;;5.18;3.25;;;33.60;39.80;;;;;;4962924;28;20265;-79
2023/07/07 12:12:08;;;;;;;10.45;3.22;;;33.70;39.10;;;;;;4959421;28;20122;-80
2023/07/07 12:15:02;;;;;;;4.60;2.97;;;33.70;39.60;;;;;;4961781;28;20899;-78
2023/07/07 12:17:32;;;;;;;3.42;3.13;;;33.60;40.10;;;;;;4964070;28;20213;-79
2023/07/07 12:20:23;;;;;;;3.28;2.97;;;33.80;40.00;;;;;;4964473;28;20069;-82
2023/07/07 12:22:50;;;;;;;3.75;3.25;;;33.90;39.40;;;;;;4964858;28;20022;-82
2023/07/07 12:25:25;;;;;;;21.83;11.05;;;34.10;39.60;;;;;;4964449;28;20054;-78
2023/07/07 12:27:52;;;;;;;6.82;3.50;;;34.20;40.00;;;;;;4964672;28;20030;-79
2023/07/07 12:30:23;;;;;;;4.13;3.22;;;34.40;39.90;;;;;;4966723;28;20031;-74
2023/07/07 12:32:50;;;;;;;4.03;3.40;;;34.60;39.80;;;;;;4965075;28;20029;-74
2023/07/07 12:35:19;;;;;;;3.92;3.10;;;34.70;40.30;;;;;;4965655;28;20308;-75
2023/07/07 12:37:47;;;;;;;4.38;3.35;;;34.80;39.50;;;;;;4967036;28;20042;-75
2023/07/07 12:40:18;;;;;;;3.47;2.78;;;34.50;39.40;;;;;;4966538;28;20038;-74
2023/07/07 12:42:53;;;;;;;4.90;3.00;;;34.40;38.70;;;;;;4956114;28;20033;-75
2023/07/07 12:45:22;;;;;;;35.75;19.80;;;34.30;39.20;;;;;;4959658;28;20030;-78
2023/07/07 12:47:55;;;;;;;6.97;2.95;;;34.20;38.80;;;;;;4960903;28;20118;-78
2023/07/07 12:50:28;;;;;;;6.15;3.67;;;34.30;39.00;;;;;;4968476;28;20022;-83
2023/07/07 12:53:01;;;;;;;3.15;2.80;;;34.50;39.50;;;;;;4959975;28;20070;-83
2023/07/07 12:55:29;;;;;;;3.75;3.15;;;34.80;38.80;;;;;;4962188;28;20039;-82
2023/07/07 12:58:07;;;;;;;5.32;3.17;;;34.70;37.20;;;;;;4970095;28;20062;-84
2023/07/07 13:00:43;;;;;;;3.88;2.63;;;34.80;37.60;;;;;;4967987;28;20076;-80
2023/07/07 13:03:08;;;;;;;3.30;3.00;;;34.70;38.10;;;;;;4955515;28;20042;-87